Time;durP1;ratioP1;P1;durP2;ratioP2;P2;SDS_P1;SDS_P2;PMS_P1;PMS_P2;Temp;Humidity;BMP_temperature;BMP_pressure;BME280_temperature;BME280_humidity;BME280_pressure;Samples;Min_cycle;Max_cycle;Signal;HPM_P1;HPM_P2
2023/07/07 00:02:17;;;;;;;;;;;13.00;99.90;;;;;;5011655;28;19956;-48
2023/07/07 00:04:43;;;;;;;;;;;13.00;99.90;;;;;;5011615;28;19916;-49
2023/07/07 00:07:08;;;;;;;;;;;13.00;99.90;;;;;;5011749;28;19910;-53
2023/07/07 00:09:34;;;;;;;;;;;13.00;99.90;;;;;;4994106;28;20005;-51
2023/07/07 00:12:00;;;;;;;;;;;13.00;99.90;;;;;;5011140;28;19945;-48
2023/07/07 00:14:26;;;;;;;;;;;13.00;99.90;;;;;;5012342;28;20332;-49
2023/07/07 00:16:51;;;;;;;;;;;12.90;99.90;;;;;;5015043;28;19917;-53
2023/07/07 00:19:18;;;;;;;;;;;12.90;99.90;;;;;;5014914;28;20349;-49
2023/07/07 00:21:43;;;;;;;;;;;12.90;99.90;;;;;;5014764;28;19916;-51
2023/07/07 00:24:10;;;;;;;;;;;12.90;99.90;;;;;;5014677;28;19927;-52
2023/07/07 00:26:36;;;;;;;;;;;12.80;99.90;;;;;;4997252;28;20344;-50
2023/07/07 00:29:02;;;;;;;;;;;12.80;99.90;;;;;;4997208;28;19972;-53
2023/07/07 00:31:28;;;;;;;;;;;12.80;99.90;;;;;;5014718;28;20285;-53
2023/07/07 00:33:54;;;;;;;;;;;12.70;99.90;;;;;;4996717;28;19914;-50
2023/07/07 00:36:19;;;;;;;;;;;12.80;99.90;;;;;;5014499;28;19968;-53
2023/07/07 00:38:46;;;;;;;;;;;12.70;99.90;;;;;;5013420;28;19949;-51
2023/07/07 00:41:12;;;;;;;;;;;12.70;99.90;;;;;;5014387;28;19955;-53
2023/07/07 00:43:37;;;;;;;;;;;12.70;99.90;;;;;;5014073;28;19917;-49
2023/07/07 00:46:04;;;;;;;;;;;12.70;99.90;;;;;;4996907;28;19909;-52
2023/07/07 00:48:36;;;;;;;;;;;12.70;99.90;;;;;;5014652;28;19965;-52
2023/07/07 00:51:06;;;;;;;;;;;12.70;99.90;;;;;;5014403;28;19921;-53
2023/07/07 00:53:32;;;;;;;;;;;12.60;99.90;;;;;;5013970;28;20386;-50
2023/07/07 00:56:00;;;;;;;;;;;12.60;99.90;;;;;;5014165;28;20293;-53
2023/07/07 00:58:25;;;;;;;;;;;12.60;99.90;;;;;;5014185;28;19916;-50
2023/07/07 01:00:59;;;;;;;;;;;12.60;99.90;;;;;;4996695;28;19909;-50
2023/07/07 01:03:27;;;;;;;;;;;12.70;99.90;;;;;;4996009;28;20250;-52
2023/07/07 01:05:55;;;;;;;;;;;12.70;99.90;;;;;;5014146;28;20293;-53
2023/07/07 01:08:20;;;;;;;;;;;12.70;99.90;;;;;;4996259;28;20388;-53
2023/07/07 01:10:47;;;;;;;;;;;12.70;99.90;;;;;;4996337;28;19909;-53
2023/07/07 01:13:13;;;;;;;;;;;12.70;99.90;;;;;;4995711;28;20011;-50
2023/07/07 01:15:47;;;;;;;;;;;12.70;99.90;;;;;;4996210;28;19913;-52
2023/07/07 01:18:19;;;;;;;;;;;12.60;99.90;;;;;;4996035;28;20330;-53
2023/07/07 01:21:00;;;;;;;;;;;12.60;99.90;;;;;;4996205;28;19919;-50
2023/07/07 01:23:32;;;;;;;;;;;12.50;99.90;;;;;;4995602;28;19964;-52
2023/07/07 01:26:14;;;;;;;;;;;12.50;99.90;;;;;;4995100;28;20000;-52
2023/07/07 01:28:43;;;;;;;;;;;12.50;99.90;;;;;;4996033;28;20405;-53
2023/07/07 01:31:12;;;;;;;;;;;12.50;99.90;;;;;;5013569;28;19914;-53
2023/07/07 01:33:37;;;;;;;;;;;12.50;99.90;;;;;;5028157;28;19945;-50
2023/07/07 01:36:03;;;;;;;;;;;12.40;99.90;;;;;;5013285;28;20400;-51
2023/07/07 01:38:29;;;;;;;;;;;12.50;99.90;;;;;;5013278;28;19993;-53
2023/07/07 01:41:00;;;;;;;;;;;12.40;99.90;;;;;;5013367;28;19964;-52
2023/07/07 01:43:31;;;;;;;;;;;12.40;99.90;;;;;;4995178;28;19909;-53
2023/07/07 01:46:04;;;;;;;;;;;12.40;99.90;;;;;;4995602;28;20004;-53
2023/07/07 01:48:34;;;;;;;;;;;12.40;99.90;;;;;;4995549;28;19917;-53
2023/07/07 01:51:01;;;;;;;;;;;12.40;99.90;;;;;;5028424;28;20370;-53
2023/07/07 01:53:29;;;;;;;;;;;12.40;99.90;;;;;;5012761;28;19955;-52
2023/07/07 01:55:57;;;;;;;;;;;12.40;99.90;;;;;;5028164;28;19909;-52
2023/07/07 01:58:22;;;;;;;;;;;12.40;99.90;;;;;;5028160;28;20549;-53
2023/07/07 02:00:49;;;;;;;;;;;12.40;99.90;;;;;;5013001;28;19909;-50
2023/07/07 02:03:16;;;;;;;;;;;12.40;99.90;;;;;;5012380;28;20003;-49
2023/07/07 02:05:41;;;;;;;;;;;12.40;99.90;;;;;;5028177;28;20020;-49
2023/07/07 02:08:09;;;;;;;;;;;12.30;99.90;;;;;;5012678;28;19967;-48
2023/07/07 02:10:34;;;;;;;;;;;12.30;99.90;;;;;;4995308;28;19909;-49
2023/07/07 02:13:00;;;;;;;;;;;12.30;99.90;;;;;;5012305;28;20321;-48
2023/07/07 02:15:26;;;;;;;;;;;12.30;99.90;;;;;;5012398;28;19916;-50
2023/07/07 02:17:51;;;;;;;;;;;12.30;99.90;;;;;;4994865;28;20384;-48
2023/07/07 02:20:17;;;;;;;;;;;12.30;99.90;;;;;;5012601;28;19913;-53
2023/07/07 02:22:43;;;;;;;;;;;12.30;99.90;;;;;;4994779;28;20377;-50
2023/07/07 02:25:08;;;;;;;;;;;12.20;99.90;;;;;;4994626;28;19932;-53
2023/07/07 02:27:34;;;;;;;;;;;12.30;99.90;;;;;;4994961;28;19909;-53
2023/07/07 02:30:01;;;;;;;;;;;12.20;99.90;;;;;;4995350;28;20000;-48
2023/07/07 02:32:27;;;;;;;;;;;12.20;99.90;;;;;;5012468;28;20000;-48
2023/07/07 02:34:56;;;;;;;;;;;12.30;99.90;;;;;;5013019;28;19920;-47
2023/07/07 02:37:23;;;;;;;;;;;12.30;99.90;;;;;;5012541;28;20356;-48
2023/07/07 02:39:51;;;;;;;;;;;12.30;99.90;;;;;;5012870;28;19910;-48
2023/07/07 02:42:17;;;;;;;;;;;12.30;99.90;;;;;;4994235;28;19910;-48
2023/07/07 02:44:42;;;;;;;;;;;12.20;99.90;;;;;;5012027;28;19988;-48
2023/07/07 02:47:08;;;;;;;;;;;12.20;99.90;;;;;;4994494;28;20016;-48
2023/07/07 02:49:34;;;;;;;;;;;12.10;99.90;;;;;;4994800;28;20412;-52
2023/07/07 02:52:01;;;;;;;;;;;12.10;99.90;;;;;;5027286;28;20302;-51
2023/07/07 02:54:26;;;;;;;;;;;12.10;99.90;;;;;;4994108;28;19917;-53
2023/07/07 02:56:53;;;;;;;;;;;12.00;99.90;;;;;;4994307;28;20405;-51
2023/07/07 02:59:19;;;;;;;;;;;12.10;99.90;;;;;;4994582;28;19910;-52
2023/07/07 03:01:44;;;;;;;;;;;12.10;99.90;;;;;;4994267;28;19909;-50
2023/07/07 03:04:10;;;;;;;;;;;12.10;99.90;;;;;;5011733;28;19952;-52
2023/07/07 03:06:37;;;;;;;;;;;12.10;99.90;;;;;;5027140;28;19910;-53
2023/07/07 03:09:03;;;;;;;;;;;12.10;99.90;;;;;;4994243;28;19909;-53
2023/07/07 03:11:29;;;;;;;;;;;12.10;99.90;;;;;;5011824;28;19917;-52
2023/07/07 03:13:55;;;;;;;;;;;12.10;99.90;;;;;;4993885;28;19996;-49
2023/07/07 03:16:31;;;;;;;;;;;12.10;99.90;;;;;;4993976;28;19914;-52
2023/07/07 03:19:06;;;;;;;;;;;12.10;99.90;;;;;;4993790;28;20362;-52
2023/07/07 03:21:34;;;;;;;;;;;12.10;99.90;;;;;;5010641;28;19932;-52
2023/07/07 03:24:18;;;;;;;;;;;12.10;99.90;;;;;;5026327;28;20012;-50
2023/07/07 03:26:44;;;;;;;;;;;12.10;99.90;;;;;;4993963;28;19909;-51
2023/07/07 03:29:11;;;;;;;;;;;12.10;99.90;;;;;;4993981;28;19916;-51
2023/07/07 03:31:38;;;;;;;;;;;12.10;99.90;;;;;;4993614;28;19909;-49
2023/07/07 03:34:05;;;;;;;;;;;12.10;99.90;;;;;;4993279;28;19909;-52
2023/07/07 03:36:35;;;;;;;;;;;12.00;99.90;;;;;;4993474;28;19996;-50
2023/07/07 03:39:03;;;;;;;;;;;12.00;99.90;;;;;;4993792;28;20396;-50
2023/07/07 03:41:29;;;;;;;;;;;12.00;99.90;;;;;;4993590;28;19936;-50
2023/07/07 03:43:56;;;;;;;;;;;12.00;99.90;;;;;;5026335;28;19991;-51
2023/07/07 03:46:25;;;;;;;;;;;12.00;99.90;;;;;;4993550;28;19916;-51
2023/07/07 03:48:53;;;;;;;;;;;12.00;99.90;;;;;;4994021;28;19921;-53
2023/07/07 03:51:20;;;;;;;;;;;11.90;99.90;;;;;;4997512;28;20297;-52
2023/07/07 03:53:47;;;;;;;;;;;11.90;99.90;;;;;;5015005;28;19916;-52
2023/07/07 03:56:13;;;;;;;;;;;11.90;99.90;;;;;;5030410;28;19917;-49
2023/07/07 03:58:40;;;;;;;;;;;11.90;99.90;;;;;;4997557;28;19966;-49
2023/07/07 04:01:10;;;;;;;;;;;11.90;99.90;;;;;;5015213;28;20000;-50
2023/07/07 04:03:36;;;;;;;;;;;11.90;99.90;;;;;;4997062;28;19916;-51
2023/07/07 04:06:02;;;;;;;;;;;11.90;99.90;;;;;;5015143;28;20208;-52
2023/07/07 04:08:28;;;;;;;;;;;11.90;99.90;;;;;;4997357;28;19913;-52
2023/07/07 04:11:01;;;;;;;;;;;11.90;99.90;;;;;;4997337;28;20469;-49
2023/07/07 04:13:27;;;;;;;;;;;12.00;99.90;;;;;;5014444;28;20278;-48
2023/07/07 04:16:00;;;;;;;;;;;12.00;99.90;;;;;;4997030;28;20370;-51
2023/07/07 04:18:26;;;;;;;;;;;12.10;99.90;;;;;;4997165;28;19919;-51
2023/07/07 04:20:51;;;;;;;;;;;12.20;99.90;;;;;;5014808;28;19996;-49
2023/07/07 04:23:17;;;;;;;;;;;12.20;99.90;;;;;;4996984;28;19913;-49
2023/07/07 04:25:45;;;;;;;;;;;12.20;99.90;;;;;;4997491;28;20024;-51
2023/07/07 04:28:11;;;;;;;;;;;12.20;99.90;;;;;;4997394;28;19909;-52
2023/07/07 04:30:38;;;;;;;;;;;12.20;99.90;;;;;;5014839;28;20296;-49
2023/07/07 04:33:04;;;;;;;;;;;12.30;99.90;;;;;;5014859;28;20340;-48
2023/07/07 04:35:34;;;;;;;;;;;12.40;99.90;;;;;;5014469;28;19913;-48
2023/07/07 04:37:59;;;;;;;;;;;12.40;99.90;;;;;;5014891;28;19921;-48
2023/07/07 04:40:25;;;;;;;;;;;12.40;99.90;;;;;;5014704;28;19909;-49
2023/07/07 04:42:51;;;;;;;;;;;12.40;99.90;;;;;;5014458;28;19909;-49
2023/07/07 04:45:16;;;;;;;;;;;12.50;99.90;;;;;;5014412;28;19913;-49
2023/07/07 04:47:42;;;;;;;;;;;12.50;99.90;;;;;;5014529;28;19944;-54
2023/07/07 04:50:07;;;;;;;;;;;12.60;99.90;;;;;;5014289;28;19916;-50
2023/07/07 04:52:33;;;;;;;;;;;12.70;99.90;;;;;;4996340;28;19944;-52
2023/07/07 04:54:58;;;;;;;;;;;12.90;99.90;;;;;;5014156;28;19909;-49
2023/07/07 04:57:24;;;;;;;;;;;13.00;99.90;;;;;;5014264;28;19997;-49
2023/07/07 04:59:49;;;;;;;;;;;13.10;99.90;;;;;;5014041;28;19944;-54
2023/07/07 05:02:15;;;;;;;;;;;13.20;99.90;;;;;;5012971;28;19909;-49
2023/07/07 05:04:41;;;;;;;;;;;13.50;99.90;;;;;;5014051;28;19909;-54
2023/07/07 05:07:07;;;;;;;;;;;13.70;99.90;;;;;;5014301;28;19917;-54
2023/07/07 05:09:32;;;;;;;;;;;13.70;99.90;;;;;;5014354;28;20447;-52
2023/07/07 05:11:58;;;;;;;;;;;13.70;99.90;;;;;;5013918;28;19917;-51
2023/07/07 05:14:23;;;;;;;;;;;13.70;99.90;;;;;;4996033;28;19918;-54
2023/07/07 05:16:49;;;;;;;;;;;13.70;99.90;;;;;;5013795;28;19917;-54
2023/07/07 05:19:14;;;;;;;;;;;13.80;99.90;;;;;;5067223;22;20390;-53
2023/07/07 05:21:40;;;;;;;;;;;13.90;99.90;;;;;;5033466;28;19912;-51
2023/07/07 05:24:05;;;;;;;;;;;13.90;99.90;;;;;;5033198;28;19999;-49
2023/07/07 05:26:31;;;;;;;;;;;14.00;99.90;;;;;;5015948;28;19909;-53
2023/07/07 05:28:58;;;;;;;;;;;14.10;99.90;;;;;;5015928;28;20046;-52
2023/07/07 05:31:23;;;;;;;;;;;14.20;99.90;;;;;;5033327;28;20007;-51
2023/07/07 05:33:50;;;;;;;;;;;14.30;99.90;;;;;;5015296;28;20015;-50
2023/07/07 05:36:15;;;;;;;;;;;14.40;99.90;;;;;;5033722;28;19960;-51
2023/07/07 05:38:41;;;;;;;;;;;14.50;99.90;;;;;;5033181;28;19956;-52
2023/07/07 05:41:07;;;;;;;;;;;14.60;99.90;;;;;;5033363;28;19910;-55
2023/07/07 05:43:35;;;;;;;;;;;14.70;99.90;;;;;;5032705;28;19956;-50
2023/07/07 05:46:01;;;;;;;;;;;14.80;99.90;;;;;;5033357;28;19909;-51
2023/07/07 05:48:27;;;;;;;;;;;14.90;99.90;;;;;;5033503;28;20418;-51
2023/07/07 05:50:56;;;;;;;;;;;15.00;99.90;;;;;;5032993;28;19920;-51
2023/07/07 05:53:22;;;;;;;;;;;15.10;99.90;;;;;;5014783;28;19913;-53
2023/07/07 05:55:47;;;;;;;;;;;15.20;99.90;;;;;;5032923;28;20445;-52
2023/07/07 05:58:16;;;;;;;;;;;15.30;99.90;;;;;;5032824;28;20007;-54
2023/07/07 06:00:42;;;;;;;;;;;15.40;99.90;;;;;;5032913;28;19909;-52
2023/07/07 06:03:08;;;;;;;;;;;15.50;99.90;;;;;;5032483;28;19932;-51
2023/07/07 06:05:33;;;;;;;;;;;15.60;99.90;;;;;;4998379;28;20258;-54
2023/07/07 06:07:59;;;;;;;;;;;15.70;99.90;;;;;;5032588;28;19985;-53
2023/07/07 06:10:25;;;;;;;;;;;15.80;99.90;;;;;;5032702;28;19909;-52
2023/07/07 06:12:51;;;;;;;;;;;15.90;99.90;;;;;;5031982;28;20313;-52
2023/07/07 06:15:16;;;;;;;;;;;16.10;99.90;;;;;;5014550;28;19909;-52
2023/07/07 06:17:42;;;;;;;;;;;16.20;99.90;;;;;;5032162;28;20012;-49
2023/07/07 06:20:08;;;;;;;;;;;16.40;99.90;;;;;;5032487;28;19952;-53
2023/07/07 06:22:33;;;;;;;;;;;16.50;99.90;;;;;;5031990;28;19915;-51
2023/07/07 06:25:00;;;;;;;;;;;16.70;99.90;;;;;;5032151;28;19913;-53
2023/07/07 06:27:26;;;;;;;;;;;16.80;99.90;;;;;;5032310;28;19940;-50
2023/07/07 06:29:52;;;;;;;;;;;17.00;99.90;;;;;;5032300;28;20218;-52
2023/07/07 06:32:17;;;;;;;;;;;17.20;99.90;;;;;;5031903;28;19916;-53
2023/07/07 06:34:43;;;;;;;;;;;17.40;99.90;;;;;;5031899;28;19918;-51
2023/07/07 06:37:08;;;;;;;;;;;17.60;99.90;;;;;;5032057;28;20293;-54
2023/07/07 06:39:34;;;;;;;;;;;17.70;99.90;;;;;;5032099;28;19971;-49
2023/07/07 06:42:00;;;;;;;;;;;17.90;99.90;;;;;;5031728;28;20361;-51
2023/07/07 06:44:32;;;;;;;;;;;18.20;99.90;;;;;;5013943;28;20369;-49
2023/07/07 06:46:58;;;;;;;;;;;18.70;99.90;;;;;;5031825;28;19916;-52
2023/07/07 06:49:24;;;;;;;;;;;18.90;99.90;;;;;;5031732;28;19909;-51
2023/07/07 06:51:49;;;;;;;;;;;19.10;99.90;;;;;;5031648;28;20281;-53
2023/07/07 06:54:15;;;;;;;;;;;19.30;99.90;;;;;;5031524;28;19909;-52
2023/07/07 06:56:40;;;;;;;;;;;19.70;99.90;;;;;;5031759;28;19913;-53
2023/07/07 06:59:07;;;;;;;;;;;19.90;99.90;;;;;;5031743;28;20298;-53
2023/07/07 07:01:33;;;;;;;;;;;20.10;99.90;;;;;;5031473;28;19915;-53
2023/07/07 07:04:00;;;;;;;;;;;20.10;99.90;;;;;;5013578;28;19912;-53
2023/07/07 07:06:26;;;;;;;;;;;20.30;99.90;;;;;;5031716;28;19983;-50
2023/07/07 07:08:51;;;;;;;;;;;20.40;98.90;;;;;;5031678;28;19948;-51
2023/07/07 07:11:17;;;;;;;;;;;20.50;99.30;;;;;;5031489;28;19913;-51
2023/07/07 07:13:43;;;;;;;;;;;20.60;98.90;;;;;;5031325;28;20353;-53
2023/07/07 07:16:08;;;;;;;;;;;20.70;98.90;;;;;;5031421;28;19916;-52
2023/07/07 07:18:34;;;;;;;;;;;20.80;98.30;;;;;;5031454;28;20415;-51
2023/07/07 07:20:59;;;;;;;;;;;20.90;97.90;;;;;;5031357;28;20003;-49
2023/07/07 07:23:25;;;;;;;;;;;21.10;97.60;;;;;;5030454;28;19931;-49
2023/07/07 07:25:50;;;;;;;;;;;21.20;98.40;;;;;;5031235;28;19936;-50
2023/07/07 07:28:16;;;;;;;;;;;21.30;98.20;;;;;;5013617;28;19935;-49
2023/07/07 07:30:42;;;;;;;;;;;21.50;98.10;;;;;;5031342;28;19909;-52
2023/07/07 07:33:11;;;;;;;;;;;21.60;97.30;;;;;;5030911;28;19909;-54
2023/07/07 07:35:37;;;;;;;;;;;21.90;95.50;;;;;;5031161;28;19913;-51
2023/07/07 07:38:02;;;;;;;;;;;22.00;95.50;;;;;;5031206;28;20361;-53
2023/07/07 07:40:28;;;;;;;;;;;22.10;96.00;;;;;;5031319;28;20056;-54
2023/07/07 07:42:53;;;;;;;;;;;22.20;95.00;;;;;;5030943;28;20003;-51
2023/07/07 07:45:20;;;;;;;;;;;22.20;94.60;;;;;;5031144;28;20022;-54
2023/07/07 07:47:45;;;;;;;;;;;22.20;94.30;;;;;;5030976;28;19909;-50
2023/07/07 07:50:12;;;;;;;;;;;22.40;94.30;;;;;;5031208;28;19916;-52
2023/07/07 07:52:37;;;;;;;;;;;22.40;94.30;;;;;;5013170;28;19928;-50
2023/07/07 07:55:03;;;;;;;;;;;22.40;94.00;;;;;;5031042;28;19992;-54
2023/07/07 07:57:28;;;;;;;;;;;22.40;95.00;;;;;;5013486;28;20389;-53
2023/07/07 07:59:54;;;;;;;;;;;22.50;93.30;;;;;;5031252;28;20405;-54
2023/07/07 08:02:19;;;;;;;;;;;22.60;93.10;;;;;;5030889;28;19909;-54
2023/07/07 08:04:45;;;;;;;;;;;22.60;92.90;;;;;;5031150;28;20003;-53
2023/07/07 08:07:10;;;;;;;;;;;22.60;92.70;;;;;;5031168;28;19952;-54
2023/07/07 08:09:36;;;;;;;;;;;22.70;92.40;;;;;;5031080;28;19909;-55
2023/07/07 08:12:03;;;;;;;;;;;22.70;92.00;;;;;;5030735;28;19909;-52
2023/07/07 08:14:32;;;;;;;;;;;22.80;91.70;;;;;;5031183;28;19913;-52
2023/07/07 08:17:01;;;;;;;;;;;22.80;92.10;;;;;;5031173;28;20258;-54
2023/07/07 08:19:28;;;;;;;;;;;22.90;90.90;;;;;;5030963;28;19913;-54
2023/07/07 08:21:53;;;;;;;;;;;23.00;91.50;;;;;;5030679;28;20358;-52
2023/07/07 08:24:19;;;;;;;;;;;23.00;91.10;;;;;;5030613;28;19913;-51
2023/07/07 08:26:46;;;;;;;;;;;23.10;91.00;;;;;;5030843;28;19909;-51
2023/07/07 08:29:12;;;;;;;;;;;23.20;90.80;;;;;;5030815;28;19916;-50
2023/07/07 08:31:38;;;;;;;;;;;23.30;90.50;;;;;;5012690;28;19909;-51
2023/07/07 08:34:03;;;;;;;;;;;23.30;90.70;;;;;;5030441;28;19909;-53
2023/07/07 08:36:29;;;;;;;;;;;23.40;88.70;;;;;;5015866;28;19939;-51
2023/07/07 08:38:59;;;;;;;;;;;23.50;87.80;;;;;;5034244;28;19909;-52
2023/07/07 08:41:27;;;;;;;;;;;23.60;87.40;;;;;;5034029;28;19909;-53
2023/07/07 08:43:53;;;;;;;;;;;23.70;83.50;;;;;;5033894;28;19913;-50
2023/07/07 08:46:31;;;;;;;;;;;23.90;82.30;;;;;;5034167;28;19913;-49
2023/07/07 08:49:20;;;;;;;;;;;24.00;81.90;;;;;;5034211;28;19917;-54
2023/07/07 08:51:56;;;;;;;;;;;24.00;81.80;;;;;;5034490;28;19931;-53
2023/07/07 08:54:28;;;;;;;;;;;24.10;81.20;;;;;;5033826;28;19909;-49
2023/07/07 08:56:56;;;;;;;;;;;24.20;79.80;;;;;;5033954;28;19917;-49
2023/07/07 08:59:31;;;;;;;;;;;24.30;84.70;;;;;;5033920;28;19918;-51
2023/07/07 09:02:04;;;;;;;;;;;24.30;80.70;;;;;;5033795;28;20188;-50
2023/07/07 09:04:39;;;;;;;;;;;24.40;82.40;;;;;;5033750;28;19917;-50
2023/07/07 09:07:15;;;;;;;;;;;24.60;79.40;;;;;;5034456;28;19915;-52
2023/07/07 09:09:41;;;;;;;;;;;24.70;79.40;;;;;;5033930;28;19916;-50
2023/07/07 09:12:09;;;;;;;;;;;24.60;79.30;;;;;;5015832;28;20100;-53
2023/07/07 09:14:36;;;;;;;;;;;24.70;77.90;;;;;;5033595;28;19963;-49
2023/07/07 09:17:11;;;;;;;;;;;24.70;77.60;;;;;;5033837;28;20261;-52
2023/07/07 09:19:39;;;;;;;;;;;24.80;75.90;;;;;;5033726;28;19913;-53
2023/07/07 09:22:05;;;;;;;;;;;24.90;74.00;;;;;;5033706;28;19912;-50
2023/07/07 09:24:35;;;;;;;;;;;25.00;74.30;;;;;;5016359;28;19963;-50
2023/07/07 09:27:08;;;;;;;;;;;25.00;73.70;;;;;;5033997;28;19960;-49
2023/07/07 09:29:34;;;;;;;;;;;25.00;75.40;;;;;;5034619;28;19915;-50
2023/07/07 09:32:02;;;;;;;;;;;25.10;74.40;;;;;;5035113;28;19909;-51
2023/07/07 09:34:28;;;;;;;;;;;25.20;71.20;;;;;;5035084;28;19916;-48
2023/07/07 09:37:05;;;;;;;;;;;25.20;73.70;;;;;;5035025;28;19917;-51
2023/07/07 09:39:33;;;;;;;;;;;25.30;74.60;;;;;;5035774;28;19909;-49
2023/07/07 09:42:14;;;;;;;;;;;25.30;75.00;;;;;;5034098;28;19913;-54
2023/07/07 09:44:49;;;;;;;;;;;25.60;72.80;;;;;;5032664;28;19917;-54
2023/07/07 09:47:21;;;;;;;;;;;25.80;70.50;;;;;;5032612;28;19917;-53
2023/07/07 09:49:55;;;;;;;;;;;25.90;72.10;;;;;;5032916;28;19909;-51
2023/07/07 09:52:37;;;;;;;;;;;26.00;70.50;;;;;;5032661;28;19916;-52
2023/07/07 09:55:09;;;;;;;;;;;26.00;69.00;;;;;;5033205;28;19912;-52
2023/07/07 09:57:38;;;;;;;;;;;26.00;68.60;;;;;;5032832;28;19913;-53
2023/07/07 10:00:07;;;;;;;;;;;26.10;67.30;;;;;;5015384;28;20285;-52
2023/07/07 10:02:33;;;;;;;;;;;26.10;66.60;;;;;;5032574;28;20373;-54
2023/07/07 10:05:00;;;;;;;;;;;26.20;68.20;;;;;;5032565;28;19916;-54
2023/07/07 10:07:26;;;;;;;;;;;26.20;66.40;;;;;;5032571;28;19941;-55
2023/07/07 10:09:51;;;;;;;;;;;26.30;67.30;;;;;;5032553;28;20071;-53
2023/07/07 10:12:17;;;;;;;;;;;26.30;65.70;;;;;;5032566;28;20012;-51
2023/07/07 10:14:43;;;;;;;;;;;26.30;66.00;;;;;;5032375;28;19909;-53
2023/07/07 10:17:09;;;;;;;;;;;26.40;67.80;;;;;;5032518;28;19923;-54
2023/07/07 10:19:39;;;;;;;;;;;26.40;66.20;;;;;;5032451;28;19913;-51
2023/07/07 10:22:05;;;;;;;;;;;26.40;67.30;;;;;;5032171;28;19956;-50
2023/07/07 10:24:31;;;;;;;;;;;26.50;65.90;;;;;;5014565;28;20413;-54
2023/07/07 10:26:57;;;;;;;;;;;26.60;63.90;;;;;;5032192;28;19995;-55
2023/07/07 10:29:26;;;;;;;;;;;26.70;64.00;;;;;;5032182;28;19909;-53
2023/07/07 10:31:52;;;;;;;;;;;26.70;63.20;;;;;;5031989;28;19995;-54
2023/07/07 10:34:20;;;;;;;;;;;26.70;62.80;;;;;;5031933;28;20358;-53
2023/07/07 10:36:45;;;;;;;;;;;26.70;62.40;;;;;;5014706;28;19941;-52
2023/07/07 10:39:12;;;;;;;;;;;26.60;65.20;;;;;;5032237;28;19909;-54
2023/07/07 10:41:37;;;;;;;;;;;26.60;64.00;;;;;;5031941;28;19909;-50
2023/07/07 10:44:03;;;;;;;;;;;26.60;62.20;;;;;;5031874;28;19984;-53
2023/07/07 10:46:29;;;;;;;;;;;26.50;65.30;;;;;;5032660;28;20003;-54
2023/07/07 10:48:55;;;;;;;;;;;26.50;66.00;;;;;;5032228;28;19909;-54
2023/07/07 10:51:28;;;;;;;;;;;26.50;61.70;;;;;;5032036;28;19963;-55
2023/07/07 10:54:06;;;;;;;;;;;26.60;61.50;;;;;;5031861;28;19908;-53
2023/07/07 10:56:37;;;;;;;;;;;26.80;61.00;;;;;;5031952;28;19913;-52
2023/07/07 10:59:21;;;;;;;;;;;26.90;60.10;;;;;;5030910;28;19920;-53
2023/07/07 11:01:57;;;;;;;;;;;27.10;60.20;;;;;;5031537;28;19955;-53
2023/07/07 11:04:41;;;;;;;;;;;27.10;61.60;;;;;;5031587;28;20201;-53
2023/07/07 11:07:39;;;;;;;;;;;27.20;60.50;;;;;;5031803;28;19967;-52
2023/07/07 11:10:33;;;;;;;;;;;27.30;59.80;;;;;;5008694;28;19916;-52
2023/07/07 11:13:08;;;;;;;;;;;27.30;61.00;;;;;;5031354;28;20542;-55
2023/07/07 11:15:49;;;;;;;;;;;27.30;61.10;;;;;;5013790;28;19909;-51
2023/07/07 11:18:38;;;;;;;;;;;27.40;61.30;;;;;;5070282;22;19925;-51
2023/07/07 11:21:19;;;;;;;;;;;27.40;60.80;;;;;;5031482;28;19913;-54
2023/07/07 11:23:57;;;;;;;;;;;27.40;62.00;;;;;;5031193;28;19910;-54
2023/07/07 11:26:22;;;;;;;;;;;27.40;61.10;;;;;;5031269;28;20365;-54
2023/07/07 11:29:05;;;;;;;;;;;27.20;61.80;;;;;;5031473;28;20064;-50
2023/07/07 11:31:39;;;;;;;;;;;27.10;61.90;;;;;;5031189;28;19963;-52
2023/07/07 11:34:23;;;;;;;;;;;27.30;60.80;;;;;;5031094;28;19913;-54
2023/07/07 11:37:14;;;;;;;;;;;27.40;61.90;;;;;;5031332;28;19935;-53
2023/07/07 11:39:40;;;;;;;;;;;27.40;60.40;;;;;;5031443;28;19963;-54
2023/07/07 11:42:17;;;;;;;;;;;27.40;60.20;;;;;;5030885;28;19917;-51
2023/07/07 11:45:05;;;;;;;;;;;27.50;60.10;;;;;;5030998;28;20373;-54
2023/07/07 11:47:31;;;;;;;;;;;27.50;59.00;;;;;;5013512;28;19948;-53
2023/07/07 11:50:15;;;;;;;;;;;27.60;60.40;;;;;;5031346;28;19951;-54
2023/07/07 11:52:59;;;;;;;;;;;27.60;60.40;;;;;;5013194;28;19955;-54
2023/07/07 11:55:25;;;;;;;;;;;27.70;60.10;;;;;;5030837;28;19916;-54
2023/07/07 11:57:55;;;;;;;;;;;27.60;59.70;;;;;;5013537;28;19912;-53
2023/07/07 12:00:34;;;;;;;;;;;27.60;60.80;;;;;;5031105;28;19909;-52
2023/07/07 12:03:26;;;;;;;;;;;27.50;59.20;;;;;;5030885;28;19916;-53
2023/07/07 12:05:53;;;;;;;;;;;27.50;59.90;;;;;;5031006;28;19960;-52
2023/07/07 12:08:21;;;;;;;;;;;27.60;59.10;;;;;;5013524;28;19917;-53
2023/07/07 12:10:48;;;;;;;;;;;27.70;59.70;;;;;;5032905;28;19915;-52
2023/07/07 12:13:23;;;;;;;;;;;27.60;60.20;;;;;;5034545;28;19916;-53
2023/07/07 12:15:51;;;;;;;;;;;27.60;59.30;;;;;;5034917;28;20374;-52
2023/07/07 12:18:25;;;;;;;;;;;27.60;59.40;;;;;;5034692;28;19913;-53
2023/07/07 12:21:06;;;;;;;;;;;27.70;58.30;;;;;;5035075;28;19909;-53
2023/07/07 12:23:34;;;;;;;;;;;27.70;59.20;;;;;;5034354;28;19967;-52
2023/07/07 12:26:03;;;;;;;;;;;27.60;58.30;;;;;;5034678;28;20391;-53
2023/07/07 12:28:29;;;;;;;;;;;27.50;59.20;;;;;;5034642;28;19913;-53
2023/07/07 12:30:55;;;;;;;;;;;27.60;59.20;;;;;;5034526;28;19916;-51
2023/07/07 12:33:20;;;;;;;;;;;27.80;59.00;;;;;;5034328;28;20416;-51
2023/07/07 12:35:58;;;;;;;;;;;27.80;56.20;;;;;;5034524;28;19963;-52
2023/07/07 12:38:30;;;;;;;;;;;27.80;56.40;;;;;;5016694;28;19920;-53
2023/07/07 12:41:04;;;;;;;;;;;27.50;56.20;;;;;;5016538;28;19955;-53
2023/07/07 12:43:29;;;;;;;;;;;27.50;58.50;;;;;;5033989;28;19920;-51
2023/07/07 12:45:56;;;;;;;;;;;27.80;58.10;;;;;;5034497;28;19916;-52
2023/07/07 12:48:22;;;;;;;;;;;27.90;58.10;;;;;;5034450;28;20020;-50
2023/07/07 12:50:48;;;;;;;;;;;27.90;56.60;;;;;;5034379;28;19909;-49
2023/07/07 12:53:17;;;;;;;;;;;27.90;58.30;;;;;;5033883;28;19909;-52
2023/07/07 12:56:12;;;;;;;;;;;28.00;57.30;;;;;;5033970;28;19909;-54
2023/07/07 12:58:48;;;;;;;;;;;28.10;56.90;;;;;;5034216;28;20318;-53
2023/07/07 13:01:13;;;;;;;;;;;28.00;58.10;;;;;;5016392;28;19909;-53
2023/07/07 13:03:42;;;;;;;;;;;28.30;57.20;;;;;;5033664;28;19913;-53
2023/07/07 13:06:28;;;;;;;;;;;28.40;58.30;;;;;;5033985;28;19909;-53
2023/07/07 13:09:12;;;;;;;;;;;28.50;56.80;;;;;;5012758;28;20372;-54
2023/07/07 13:11:39;;;;;;;;;;;28.50;56.40;;;;;;5033928;28;20424;-54
2023/07/07 13:14:06;;;;;;;;;;;28.50;54.90;;;;;;5033706;28;20003;-52
2023/07/07 13:16:32;;;;;;;;;;;28.70;55.50;;;;;;5033852;28;19913;-53
2023/07/07 13:18:58;;;;;;;;;;;28.80;56.30;;;;;;5033927;28;19959;-50
2023/07/07 13:21:28;;;;;;;;;;;28.90;56.80;;;;;;5032910;28;20366;-54
2023/07/07 13:23:54;;;;;;;;;;;28.80;55.10;;;;;;5033465;28;19909;-53
2023/07/07 13:26:23;;;;;;;;;;;28.90;55.00;;;;;;5033676;28;20286;-52
2023/07/07 13:28:49;;;;;;;;;;;28.90;53.90;;;;;;5033631;28;19913;-52
2023/07/07 13:31:16;;;;;;;;;;;28.90;54.50;;;;;;5033411;28;20262;-49
2023/07/07 13:33:41;;;;;;;;;;;28.90;54.30;;;;;;5033196;28;19909;-53
2023/07/07 13:36:08;;;;;;;;;;;28.90;53.70;;;;;;5015841;28;19916;-52
2023/07/07 13:38:35;;;;;;;;;;;28.80;53.90;;;;;;5033259;28;19984;-53
2023/07/07 13:41:01;;;;;;;;;;;28.70;52.80;;;;;;5033275;28;19988;-52
2023/07/07 13:43:27;;;;;;;;;;;28.70;53.70;;;;;;5033237;28;19945;-52
2023/07/07 13:45:54;;;;;;;;;;;28.70;54.50;;;;;;5033076;28;20014;-50
2023/07/07 13:48:21;;;;;;;;;;;28.80;53.20;;;;;;5033133;28;20279;-52
2023/07/07 13:50:46;;;;;;;;;;;28.90;52.90;;;;;;5033040;28;19936;-51
2023/07/07 13:53:12;;;;;;;;;;;29.00;53.10;;;;;;5032736;28;19917;-51
2023/07/07 13:55:39;;;;;;;;;;;29.00;52.70;;;;;;5032898;28;19909;-50
2023/07/07 13:58:10;;;;;;;;;;;28.90;54.10;;;;;;5033297;28;20016;-49
2023/07/07 14:00:37;;;;;;;;;;;28.90;53.20;;;;;;5033109;28;19912;-53
2023/07/07 14:03:04;;;;;;;;;;;28.70;54.10;;;;;;5032691;28;19909;-53
2023/07/07 14:05:32;;;;;;;;;;;28.60;54.70;;;;;;5032523;28;19916;-52
2023/07/07 14:07:57;;;;;;;;;;;28.70;55.20;;;;;;5032747;28;19963;-54
2023/07/07 14:10:37;;;;;;;;;;;29.00;54.90;;;;;;5032739;28;19909;-51
2023/07/07 14:13:05;;;;;;;;;;;29.10;53.00;;;;;;5032354;28;20003;-52
2023/07/07 14:15:40;;;;;;;;;;;29.10;52.30;;;;;;5032631;28;19916;-50
2023/07/07 14:18:08;;;;;;;;;;;29.10;53.30;;;;;;5032396;28;19992;-51
2023/07/07 14:20:40;;;;;;;;;;;29.10;53.70;;;;;;5032512;28;19955;-52
2023/07/07 14:23:07;;;;;;;;;;;29.20;52.40;;;;;;5032010;28;19909;-51
2023/07/07 14:25:38;;;;;;;;;;;29.30;51.70;;;;;;5032225;28;19913;-50